sensor_id;sensor_type;location;lat;lon;timestamp;P1;durP1;ratioP1;P2;durP2;ratioP2
65560;SDS011;58166;52.100;6.308;2022-08-04T00:00:37;4.63;;;3.70;;
65560;SDS011;58166;52.100;6.308;2022-08-04T00:03:18;4.45;;;3.90;;
65560;SDS011;58166;52.100;6.308;2022-08-04T00:05:51;5.43;;;3.67;;
65560;SDS011;58166;52.100;6.308;2022-08-04T00:08:21;5.88;;;3.30;;
65560;SDS011;58166;52.100;6.308;2022-08-04T00:10:52;10.43;;;3.83;;
65560;SDS011;58166;52.100;6.308;2022-08-04T00:13:21;4.82;;;3.60;;
65560;SDS011;58166;52.100;6.308;2022-08-04T00:15:50;6.15;;;3.88;;
65560;SDS011;58166;52.100;6.308;2022-08-04T00:18:20;6.72;;;3.50;;
65560;SDS011;58166;52.100;6.308;2022-08-04T00:20:49;3.95;;;3.60;;
65560;SDS011;58166;52.100;6.308;2022-08-04T00:23:17;6.93;;;3.88;;
65560;SDS011;58166;52.100;6.308;2022-08-04T00:25:45;6.13;;;3.88;;
65560;SDS011;58166;52.100;6.308;2022-08-04T00:28:13;6.22;;;3.45;;
65560;SDS011;58166;52.100;6.308;2022-08-04T00:30:40;4.97;;;3.80;;
65560;SDS011;58166;52.100;6.308;2022-08-04T00:33:08;5.47;;;3.70;;
65560;SDS011;58166;52.100;6.308;2022-08-04T00:35:38;5.85;;;3.58;;
65560;SDS011;58166;52.100;6.308;2022-08-04T00:38:06;5.22;;;3.35;;
65560;SDS011;58166;52.100;6.308;2022-08-04T00:40:35;4.15;;;3.72;;
65560;SDS011;58166;52.100;6.308;2022-08-04T00:43:07;3.67;;;3.28;;
65560;SDS011;58166;52.100;6.308;2022-08-04T00:45:43;5.22;;;4.35;;
65560;SDS011;58166;52.100;6.308;2022-08-04T00:48:39;7.28;;;4.85;;
65560;SDS011;58166;52.100;6.308;2022-08-04T00:51:13;6.20;;;4.38;;
65560;SDS011;58166;52.100;6.308;2022-08-04T00:53:44;7.43;;;4.10;;
65560;SDS011;58166;52.100;6.308;2022-08-04T00:56:21;6.18;;;4.43;;
65560;SDS011;58166;52.100;6.308;2022-08-04T00:58:57;5.82;;;4.40;;
65560;SDS011;58166;52.100;6.308;2022-08-04T01:01:34;5.70;;;4.32;;
65560;SDS011;58166;52.100;6.308;2022-08-04T01:04:08;7.57;;;4.55;;
65560;SDS011;58166;52.100;6.308;2022-08-04T01:06:40;8.07;;;5.63;;
65560;SDS011;58166;52.100;6.308;2022-08-04T01:09:25;6.88;;;4.93;;
65560;SDS011;58166;52.100;6.308;2022-08-04T01:11:57;8.43;;;4.32;;
65560;SDS011;58166;52.100;6.308;2022-08-04T01:14:28;4.80;;;4.03;;
65560;SDS011;58166;52.100;6.308;2022-08-04T01:17:04;7.65;;;5.03;;
65560;SDS011;58166;52.100;6.308;2022-08-04T01:19:48;6.80;;;4.90;;
65560;SDS011;58166;52.100;6.308;2022-08-04T01:22:26;7.03;;;4.97;;
65560;SDS011;58166;52.100;6.308;2022-08-04T01:24:58;8.70;;;5.60;;
65560;SDS011;58166;52.100;6.308;2022-08-04T01:27:38;5.50;;;4.55;;
65560;SDS011;58166;52.100;6.308;2022-08-04T01:30:14;8.10;;;5.15;;
65560;SDS011;58166;52.100;6.308;2022-08-04T01:32:43;6.28;;;5.10;;
65560;SDS011;58166;52.100;6.308;2022-08-04T01:35:13;7.88;;;5.43;;
65560;SDS011;58166;52.100;6.308;2022-08-04T01:38:06;8.45;;;5.55;;
65560;SDS011;58166;52.100;6.308;2022-08-04T01:40:47;9.75;;;5.22;;
65560;SDS011;58166;52.100;6.308;2022-08-04T01:45:48;9.02;;;5.47;;
65560;SDS011;58166;52.100;6.308;2022-08-04T01:48:16;8.27;;;4.75;;
65560;SDS011;58166;52.100;6.308;2022-08-04T01:50:44;8.30;;;4.85;;
65560;SDS011;58166;52.100;6.308;2022-08-04T01:53:18;7.40;;;4.60;;
65560;SDS011;58166;52.100;6.308;2022-08-04T01:55:46;6.55;;;4.95;;
65560;SDS011;58166;52.100;6.308;2022-08-04T01:58:20;7.72;;;5.13;;
65560;SDS011;58166;52.100;6.308;2022-08-04T02:00:55;5.82;;;5.10;;
65560;SDS011;58166;52.100;6.308;2022-08-04T02:03:23;9.68;;;5.00;;
65560;SDS011;58166;52.100;6.308;2022-08-04T02:06:15;5.93;;;4.82;;
65560;SDS011;58166;52.100;6.308;2022-08-04T02:08:46;5.47;;;4.93;;
65560;SDS011;58166;52.100;6.308;2022-08-04T02:11:17;8.35;;;5.28;;
65560;SDS011;58166;52.100;6.308;2022-08-04T02:13:48;12.60;;;5.80;;
65560;SDS011;58166;52.100;6.308;2022-08-04T02:16:23;7.05;;;5.40;;
65560;SDS011;58166;52.100;6.308;2022-08-04T02:18:56;10.38;;;5.22;;
65560;SDS011;58166;52.100;6.308;2022-08-04T02:23:55;8.43;;;5.15;;
65560;SDS011;58166;52.100;6.308;2022-08-04T02:26:27;8.48;;;5.15;;
65560;SDS011;58166;52.100;6.308;2022-08-04T02:28:57;7.95;;;4.95;;
65560;SDS011;58166;52.100;6.308;2022-08-04T02:31:29;9.05;;;5.47;;
65560;SDS011;58166;52.100;6.308;2022-08-04T02:34:00;6.78;;;4.65;;
65560;SDS011;58166;52.100;6.308;2022-08-04T02:36:33;9.63;;;4.80;;
65560;SDS011;58166;52.100;6.308;2022-08-04T02:39:02;7.32;;;4.78;;
65560;SDS011;58166;52.100;6.308;2022-08-04T02:41:31;7.30;;;4.93;;
65560;SDS011;58166;52.100;6.308;2022-08-04T02:43:59;14.77;;;5.60;;
65560;SDS011;58166;52.100;6.308;2022-08-04T02:46:28;8.95;;;4.60;;
65560;SDS011;58166;52.100;6.308;2022-08-04T02:48:56;7.50;;;4.85;;
65560;SDS011;58166;52.100;6.308;2022-08-04T02:51:25;7.10;;;4.53;;
65560;SDS011;58166;52.100;6.308;2022-08-04T02:53:54;8.57;;;4.65;;
65560;SDS011;58166;52.100;6.308;2022-08-04T02:56:22;7.35;;;4.60;;
65560;SDS011;58166;52.100;6.308;2022-08-04T02:58:51;8.10;;;5.03;;
65560;SDS011;58166;52.100;6.308;2022-08-04T03:01:20;5.78;;;4.70;;
65560;SDS011;58166;52.100;6.308;2022-08-04T03:03:52;7.47;;;4.38;;
65560;SDS011;58166;52.100;6.308;2022-08-04T03:06:33;5.93;;;4.30;;
65560;SDS011;58166;52.100;6.308;2022-08-04T03:09:16;4.53;;;3.78;;
65560;SDS011;58166;52.100;6.308;2022-08-04T03:14:53;9.88;;;4.30;;
65560;SDS011;58166;52.100;6.308;2022-08-04T03:17:43;6.00;;;3.90;;
65560;SDS011;58166;52.100;6.308;2022-08-04T03:20:30;8.65;;;3.95;;
65560;SDS011;58166;52.100;6.308;2022-08-04T03:23:11;9.95;;;3.83;;
65560;SDS011;58166;52.100;6.308;2022-08-04T03:25:52;6.13;;;4.00;;
65560;SDS011;58166;52.100;6.308;2022-08-04T03:31:19;5.28;;;3.35;;
65560;SDS011;58166;52.100;6.308;2022-08-04T03:33:57;6.60;;;3.33;;
65560;SDS011;58166;52.100;6.308;2022-08-04T03:36:47;9.90;;;3.58;;
65560;SDS011;58166;52.100;6.308;2022-08-04T03:39:36;6.55;;;3.70;;
65560;SDS011;58166;52.100;6.308;2022-08-04T03:45:04;6.95;;;3.30;;
65560;SDS011;58166;52.100;6.308;2022-08-04T03:50:42;3.83;;;3.00;;
65560;SDS011;58166;52.100;6.308;2022-08-04T03:53:23;8.60;;;3.38;;
65560;SDS011;58166;52.100;6.308;2022-08-04T03:56:03;6.05;;;3.13;;
65560;SDS011;58166;52.100;6.308;2022-08-04T03:58:49;7.07;;;3.13;;
65560;SDS011;58166;52.100;6.308;2022-08-04T04:04:38;6.97;;;3.53;;
65560;SDS011;58166;52.100;6.308;2022-08-04T04:10:09;11.35;;;3.75;;
65560;SDS011;58166;52.100;6.308;2022-08-04T04:12:47;7.93;;;2.92;;
65560;SDS011;58166;52.100;6.308;2022-08-04T04:15:29;6.75;;;2.80;;
65560;SDS011;58166;52.100;6.308;2022-08-04T04:20:40;9.95;;;2.90;;
65560;SDS011;58166;52.100;6.308;2022-08-04T04:23:17;9.52;;;2.97;;
65560;SDS011;58166;52.100;6.308;2022-08-04T04:25:53;6.38;;;2.80;;
65560;SDS011;58166;52.100;6.308;2022-08-04T04:28:26;7.78;;;2.60;;
65560;SDS011;58166;52.100;6.308;2022-08-04T04:31:32;9.43;;;2.70;;
65560;SDS011;58166;52.100;6.308;2022-08-04T04:34:05;9.60;;;3.10;;
65560;SDS011;58166;52.100;6.308;2022-08-04T04:36:36;7.72;;;2.72;;
65560;SDS011;58166;52.100;6.308;2022-08-04T04:39:12;7.90;;;2.60;;
65560;SDS011;58166;52.100;6.308;2022-08-04T04:41:52;5.22;;;2.05;;
65560;SDS011;58166;52.100;6.308;2022-08-04T04:47:07;6.50;;;2.13;;
65560;SDS011;58166;52.100;6.308;2022-08-04T04:49:39;9.15;;;2.72;;
65560;SDS011;58166;52.100;6.308;2022-08-04T04:52:12;8.43;;;2.42;;
65560;SDS011;58166;52.100;6.308;2022-08-04T04:54:42;9.48;;;2.60;;
65560;SDS011;58166;52.100;6.308;2022-08-04T04:57:13;9.73;;;2.80;;
65560;SDS011;58166;52.100;6.308;2022-08-04T04:59:43;8.45;;;2.55;;
65560;SDS011;58166;52.100;6.308;2022-08-04T05:02:25;6.03;;;2.03;;
65560;SDS011;58166;52.100;6.308;2022-08-04T05:07:44;7.07;;;2.60;;
65560;SDS011;58166;52.100;6.308;2022-08-04T05:12:56;8.75;;;2.63;;
65560;SDS011;58166;52.100;6.308;2022-08-04T05:18:16;8.23;;;2.42;;
65560;SDS011;58166;52.100;6.308;2022-08-04T05:20:46;9.75;;;2.60;;
65560;SDS011;58166;52.100;6.308;2022-08-04T05:23:16;10.80;;;2.85;;
65560;SDS011;58166;52.100;6.308;2022-08-04T05:25:46;10.02;;;2.38;;
65560;SDS011;58166;52.100;6.308;2022-08-04T05:30:55;10.65;;;2.67;;
65560;SDS011;58166;52.100;6.308;2022-08-04T05:33:25;10.60;;;2.40;;
65560;SDS011;58166;52.100;6.308;2022-08-04T05:35:55;10.85;;;3.00;;
65560;SDS011;58166;52.100;6.308;2022-08-04T05:38:43;9.90;;;3.08;;
65560;SDS011;58166;52.100;6.308;2022-08-04T05:41:12;6.55;;;2.40;;
65560;SDS011;58166;52.100;6.308;2022-08-04T05:43:41;6.25;;;2.20;;
65560;SDS011;58166;52.100;6.308;2022-08-04T05:46:11;12.52;;;2.75;;
65560;SDS011;58166;52.100;6.308;2022-08-04T05:48:39;8.00;;;2.70;;
65560;SDS011;58166;52.100;6.308;2022-08-04T05:51:08;10.27;;;3.17;;
65560;SDS011;58166;52.100;6.308;2022-08-04T05:53:36;11.13;;;2.90;;
65560;SDS011;58166;52.100;6.308;2022-08-04T05:56:04;9.95;;;3.08;;
65560;SDS011;58166;52.100;6.308;2022-08-04T05:58:32;11.98;;;3.78;;
65560;SDS011;58166;52.100;6.308;2022-08-04T06:01:01;8.18;;;2.90;;
65560;SDS011;58166;52.100;6.308;2022-08-04T06:03:30;6.97;;;3.28;;
65560;SDS011;58166;52.100;6.308;2022-08-04T06:05:58;10.18;;;3.42;;
65560;SDS011;58166;52.100;6.308;2022-08-04T06:08:26;8.50;;;3.22;;
65560;SDS011;58166;52.100;6.308;2022-08-04T06:10:55;10.43;;;3.58;;
65560;SDS011;58166;52.100;6.308;2022-08-04T06:13:25;5.63;;;3.40;;
65560;SDS011;58166;52.100;6.308;2022-08-04T06:16:15;11.05;;;3.65;;
65560;SDS011;58166;52.100;6.308;2022-08-04T06:18:58;8.85;;;3.67;;
65560;SDS011;58166;52.100;6.308;2022-08-04T06:21:46;4.57;;;2.97;;
65560;SDS011;58166;52.100;6.308;2022-08-04T06:24:16;8.35;;;3.50;;
65560;SDS011;58166;52.100;6.308;2022-08-04T06:26:45;7.90;;;3.22;;
65560;SDS011;58166;52.100;6.308;2022-08-04T06:29:13;9.25;;;3.50;;
65560;SDS011;58166;52.100;6.308;2022-08-04T06:31:49;6.82;;;3.22;;
65560;SDS011;58166;52.100;6.308;2022-08-04T06:34:45;6.95;;;3.05;;
65560;SDS011;58166;52.100;6.308;2022-08-04T06:37:14;7.45;;;3.53;;
65560;SDS011;58166;52.100;6.308;2022-08-04T06:40:03;10.05;;;3.42;;
65560;SDS011;58166;52.100;6.308;2022-08-04T06:42:51;6.32;;;3.03;;
65560;SDS011;58166;52.100;6.308;2022-08-04T06:45:19;7.18;;;2.92;;
65560;SDS011;58166;52.100;6.308;2022-08-04T06:47:46;7.18;;;2.88;;
65560;SDS011;58166;52.100;6.308;2022-08-04T06:50:16;6.25;;;2.85;;
65560;SDS011;58166;52.100;6.308;2022-08-04T06:53:04;7.65;;;2.90;;
65560;SDS011;58166;52.100;6.308;2022-08-04T06:55:32;9.07;;;3.42;;
65560;SDS011;58166;52.100;6.308;2022-08-04T06:58:00;7.22;;;3.40;;
65560;SDS011;58166;52.100;6.308;2022-08-04T07:00:29;10.55;;;3.20;;
65560;SDS011;58166;52.100;6.308;2022-08-04T07:02:57;6.93;;;2.92;;
65560;SDS011;58166;52.100;6.308;2022-08-04T07:05:26;10.10;;;3.22;;
65560;SDS011;58166;52.100;6.308;2022-08-04T07:07:54;8.20;;;3.22;;
65560;SDS011;58166;52.100;6.308;2022-08-04T07:10:24;5.85;;;2.80;;
65560;SDS011;58166;52.100;6.308;2022-08-04T07:12:51;6.05;;;2.70;;
65560;SDS011;58166;52.100;6.308;2022-08-04T07:15:19;9.00;;;2.70;;
65560;SDS011;58166;52.100;6.308;2022-08-04T07:17:47;9.43;;;3.17;;
65560;SDS011;58166;52.100;6.308;2022-08-04T07:20:17;9.38;;;3.63;;
65560;SDS011;58166;52.100;6.308;2022-08-04T07:23:02;8.43;;;3.60;;
65560;SDS011;58166;52.100;6.308;2022-08-04T07:25:30;8.52;;;3.00;;
65560;SDS011;58166;52.100;6.308;2022-08-04T07:28:18;7.32;;;3.05;;
65560;SDS011;58166;52.100;6.308;2022-08-04T07:30:46;6.38;;;3.05;;
65560;SDS011;58166;52.100;6.308;2022-08-04T07:33:14;8.25;;;3.20;;
65560;SDS011;58166;52.100;6.308;2022-08-04T07:35:42;8.50;;;2.90;;
65560;SDS011;58166;52.100;6.308;2022-08-04T07:38:31;7.28;;;2.72;;
65560;SDS011;58166;52.100;6.308;2022-08-04T07:41:02;6.00;;;3.10;;
65560;SDS011;58166;52.100;6.308;2022-08-04T07:43:51;8.35;;;3.20;;
65560;SDS011;58166;52.100;6.308;2022-08-04T07:46:20;7.85;;;2.97;;
65560;SDS011;58166;52.100;6.308;2022-08-04T07:48:47;8.43;;;2.80;;
65560;SDS011;58166;52.100;6.308;2022-08-04T07:51:15;5.88;;;3.13;;
65560;SDS011;58166;52.100;6.308;2022-08-04T07:53:44;5.50;;;2.50;;
65560;SDS011;58166;52.100;6.308;2022-08-04T07:56:20;8.82;;;3.03;;
65560;SDS011;58166;52.100;6.308;2022-08-04T07:58:48;8.10;;;3.22;;
65560;SDS011;58166;52.100;6.308;2022-08-04T08:01:16;7.90;;;3.35;;
65560;SDS011;58166;52.100;6.308;2022-08-04T08:03:44;8.73;;;3.30;;
65560;SDS011;58166;52.100;6.308;2022-08-04T08:06:12;7.78;;;2.97;;
65560;SDS011;58166;52.100;6.308;2022-08-04T08:09:00;9.88;;;3.83;;
65560;SDS011;58166;52.100;6.308;2022-08-04T08:11:39;7.00;;;3.00;;
65560;SDS011;58166;52.100;6.308;2022-08-04T08:14:27;10.77;;;3.92;;
65560;SDS011;58166;52.100;6.308;2022-08-04T08:16:55;8.55;;;3.42;;
65560;SDS011;58166;52.100;6.308;2022-08-04T08:19:22;6.53;;;3.10;;
65560;SDS011;58166;52.100;6.308;2022-08-04T08:21:50;7.93;;;3.22;;
65560;SDS011;58166;52.100;6.308;2022-08-04T08:24:27;7.25;;;3.85;;
65560;SDS011;58166;52.100;6.308;2022-08-04T08:26:54;7.65;;;3.70;;
65560;SDS011;58166;52.100;6.308;2022-08-04T08:29:22;10.77;;;3.40;;
65560;SDS011;58166;52.100;6.308;2022-08-04T08:31:50;9.50;;;3.25;;
65560;SDS011;58166;52.100;6.308;2022-08-04T08:34:23;7.72;;;3.10;;
65560;SDS011;58166;52.100;6.308;2022-08-04T08:36:56;5.65;;;2.58;;
65560;SDS011;58166;52.100;6.308;2022-08-04T08:39:29;8.63;;;3.63;;
65560;SDS011;58166;52.100;6.308;2022-08-04T08:47:55;10.43;;;3.85;;
65560;SDS011;58166;52.100;6.308;2022-08-04T08:50:59;6.47;;;3.13;;
65560;SDS011;58166;52.100;6.308;2022-08-04T08:53:38;8.45;;;3.20;;
65560;SDS011;58166;52.100;6.308;2022-08-04T08:56:15;7.18;;;3.38;;
65560;SDS011;58166;52.100;6.308;2022-08-04T08:58:46;6.03;;;3.33;;
65560;SDS011;58166;52.100;6.308;2022-08-04T09:01:24;7.70;;;3.47;;
65560;SDS011;58166;52.100;6.308;2022-08-04T09:03:59;7.13;;;3.30;;
65560;SDS011;58166;52.100;6.308;2022-08-04T09:06:39;7.68;;;3.90;;
65560;SDS011;58166;52.100;6.308;2022-08-04T09:09:20;5.70;;;3.15;;
65560;SDS011;58166;52.100;6.308;2022-08-04T09:11:57;9.63;;;4.07;;
65560;SDS011;58166;52.100;6.308;2022-08-04T09:14:34;7.95;;;3.75;;
65560;SDS011;58166;52.100;6.308;2022-08-04T09:17:09;10.35;;;4.05;;
65560;SDS011;58166;52.100;6.308;2022-08-04T09:19:41;7.20;;;2.97;;
65560;SDS011;58166;52.100;6.308;2022-08-04T09:22:12;7.72;;;3.65;;
65560;SDS011;58166;52.100;6.308;2022-08-04T09:24:44;8.52;;;3.63;;
65560;SDS011;58166;52.100;6.308;2022-08-04T09:27:17;8.90;;;3.42;;
65560;SDS011;58166;52.100;6.308;2022-08-04T09:29:47;8.90;;;3.60;;
65560;SDS011;58166;52.100;6.308;2022-08-04T09:32:20;7.68;;;3.45;;
65560;SDS011;58166;52.100;6.308;2022-08-04T09:34:50;10.80;;;3.83;;
65560;SDS011;58166;52.100;6.308;2022-08-04T09:37:35;9.45;;;3.15;;
65560;SDS011;58166;52.100;6.308;2022-08-04T09:40:14;8.95;;;3.38;;
65560;SDS011;58166;52.100;6.308;2022-08-04T09:43:10;9.15;;;3.10;;
65560;SDS011;58166;52.100;6.308;2022-08-04T09:45:44;8.40;;;3.22;;
65560;SDS011;58166;52.100;6.308;2022-08-04T09:48:16;8.75;;;3.40;;
65560;SDS011;58166;52.100;6.308;2022-08-04T09:50:46;8.30;;;3.22;;
65560;SDS011;58166;52.100;6.308;2022-08-04T09:53:23;6.63;;;3.10;;
65560;SDS011;58166;52.100;6.308;2022-08-04T09:55:57;7.57;;;3.22;;
65560;SDS011;58166;52.100;6.308;2022-08-04T09:58:38;8.18;;;3.38;;
65560;SDS011;58166;52.100;6.308;2022-08-04T10:01:07;6.90;;;2.70;;
65560;SDS011;58166;52.100;6.308;2022-08-04T10:03:37;7.82;;;2.88;;
65560;SDS011;58166;52.100;6.308;2022-08-04T10:06:07;9.73;;;3.10;;
65560;SDS011;58166;52.100;6.308;2022-08-04T10:08:40;11.30;;;3.17;;
65560;SDS011;58166;52.100;6.308;2022-08-04T10:11:11;8.02;;;2.95;;
65560;SDS011;58166;52.100;6.308;2022-08-04T10:13:45;8.05;;;3.40;;
65560;SDS011;58166;52.100;6.308;2022-08-04T10:16:23;9.18;;;3.45;;
65560;SDS011;58166;52.100;6.308;2022-08-04T10:19:00;8.10;;;2.70;;
65560;SDS011;58166;52.100;6.308;2022-08-04T10:21:35;8.88;;;2.80;;
65560;SDS011;58166;52.100;6.308;2022-08-04T10:24:28;11.52;;;3.50;;
65560;SDS011;58166;52.100;6.308;2022-08-04T10:26:59;5.55;;;2.80;;
65560;SDS011;58166;52.100;6.308;2022-08-04T10:29:30;4.10;;;2.10;;
65560;SDS011;58166;52.100;6.308;2022-08-04T10:31:58;7.63;;;2.30;;
65560;SDS011;58166;52.100;6.308;2022-08-04T10:34:28;4.65;;;2.40;;
65560;SDS011;58166;52.100;6.308;2022-08-04T10:36:59;7.55;;;2.33;;
65560;SDS011;58166;52.100;6.308;2022-08-04T10:39:31;5.35;;;2.25;;
65560;SDS011;58166;52.100;6.308;2022-08-04T10:42:11;5.57;;;2.40;;
65560;SDS011;58166;52.100;6.308;2022-08-04T10:44:46;6.15;;;1.85;;
65560;SDS011;58166;52.100;6.308;2022-08-04T10:47:24;4.95;;;2.58;;
65560;SDS011;58166;52.100;6.308;2022-08-04T10:49:54;7.85;;;2.20;;
65560;SDS011;58166;52.100;6.308;2022-08-04T10:52:23;10.43;;;2.08;;
65560;SDS011;58166;52.100;6.308;2022-08-04T10:54:55;6.47;;;2.20;;
65560;SDS011;58166;52.100;6.308;2022-08-04T10:57:25;4.53;;;2.20;;
65560;SDS011;58166;52.100;6.308;2022-08-04T10:59:57;6.50;;;2.10;;
65560;SDS011;58166;52.100;6.308;2022-08-04T11:02:33;5.03;;;1.90;;
65560;SDS011;58166;52.100;6.308;2022-08-04T11:05:10;4.57;;;2.25;;
65560;SDS011;58166;52.100;6.308;2022-08-04T11:07:40;5.85;;;1.90;;
65560;SDS011;58166;52.100;6.308;2022-08-04T11:10:09;4.90;;;2.22;;
65560;SDS011;58166;52.100;6.308;2022-08-04T11:12:36;5.40;;;2.38;;
65560;SDS011;58166;52.100;6.308;2022-08-04T11:15:08;4.20;;;2.30;;
65560;SDS011;58166;52.100;6.308;2022-08-04T11:17:38;4.57;;;2.40;;
65560;SDS011;58166;52.100;6.308;2022-08-04T11:20:10;4.03;;;2.58;;
65560;SDS011;58166;52.100;6.308;2022-08-04T11:23:02;7.85;;;2.80;;
65560;SDS011;58166;52.100;6.308;2022-08-04T11:25:34;7.60;;;2.95;;
65560;SDS011;58166;52.100;6.308;2022-08-04T11:28:03;9.10;;;3.72;;
65560;SDS011;58166;52.100;6.308;2022-08-04T11:30:36;10.35;;;3.83;;
65560;SDS011;58166;52.100;6.308;2022-08-04T11:33:08;16.10;;;5.15;;
65560;SDS011;58166;52.100;6.308;2022-08-04T11:35:37;14.38;;;4.47;;
65560;SDS011;58166;52.100;6.308;2022-08-04T11:38:08;10.98;;;4.03;;
65560;SDS011;58166;52.100;6.308;2022-08-04T11:40:39;8.93;;;3.95;;
65560;SDS011;58166;52.100;6.308;2022-08-04T11:43:31;7.40;;;3.45;;
65560;SDS011;58166;52.100;6.308;2022-08-04T11:46:21;7.43;;;3.47;;
65560;SDS011;58166;52.100;6.308;2022-08-04T11:48:51;7.45;;;3.70;;
65560;SDS011;58166;52.100;6.308;2022-08-04T11:51:19;7.27;;;3.10;;
65560;SDS011;58166;52.100;6.308;2022-08-04T11:53:47;8.35;;;3.53;;
65560;SDS011;58166;52.100;6.308;2022-08-04T11:56:15;7.10;;;3.10;;
65560;SDS011;58166;52.100;6.308;2022-08-04T11:59:02;9.80;;;3.60;;
65560;SDS011;58166;52.100;6.308;2022-08-04T12:01:35;8.88;;;3.47;;
65560;SDS011;58166;52.100;6.308;2022-08-04T12:04:05;10.70;;;4.20;;
65560;SDS011;58166;52.100;6.308;2022-08-04T12:06:36;9.18;;;4.40;;
65560;SDS011;58166;52.100;6.308;2022-08-04T12:09:08;8.98;;;4.53;;
65560;SDS011;58166;52.100;6.308;2022-08-04T12:11:44;7.47;;;4.35;;
65560;SDS011;58166;52.100;6.308;2022-08-04T12:14:20;8.65;;;4.30;;
65560;SDS011;58166;52.100;6.308;2022-08-04T12:16:54;7.88;;;4.20;;
65560;SDS011;58166;52.100;6.308;2022-08-04T12:19:27;10.50;;;5.00;;
65560;SDS011;58166;52.100;6.308;2022-08-04T12:22:17;6.75;;;3.55;;
65560;SDS011;58166;52.100;6.308;2022-08-04T12:24:48;8.10;;;4.32;;
65560;SDS011;58166;52.100;6.308;2022-08-04T12:27:19;7.97;;;3.97;;
65560;SDS011;58166;52.100;6.308;2022-08-04T12:29:56;7.22;;;4.43;;
65560;SDS011;58166;52.100;6.308;2022-08-04T12:32:47;10.90;;;4.53;;
65560;SDS011;58166;52.100;6.308;2022-08-04T12:35:19;8.68;;;4.43;;
65560;SDS011;58166;52.100;6.308;2022-08-04T12:37:49;7.15;;;4.18;;
65560;SDS011;58166;52.100;6.308;2022-08-04T12:40:19;7.65;;;4.10;;
65560;SDS011;58166;52.100;6.308;2022-08-04T12:45:42;7.97;;;4.63;;
65560;SDS011;58166;52.100;6.308;2022-08-04T12:48:15;11.63;;;4.40;;
65560;SDS011;58166;52.100;6.308;2022-08-04T12:50:46;5.55;;;4.32;;
65560;SDS011;58166;52.100;6.308;2022-08-04T12:53:14;9.82;;;4.43;;
65560;SDS011;58166;52.100;6.308;2022-08-04T12:55:58;7.10;;;4.55;;
65560;SDS011;58166;52.100;6.308;2022-08-04T12:58:28;7.30;;;3.57;;
65560;SDS011;58166;52.100;6.308;2022-08-04T13:01:09;6.90;;;3.80;;
65560;SDS011;58166;52.100;6.308;2022-08-04T13:03:59;9.90;;;3.97;;
65560;SDS011;58166;52.100;6.308;2022-08-04T13:06:30;7.07;;;3.78;;
65560;SDS011;58166;52.100;6.308;2022-08-04T13:09:02;6.63;;;3.22;;
65560;SDS011;58166;52.100;6.308;2022-08-04T13:11:35;7.20;;;3.25;;
65560;SDS011;58166;52.100;6.308;2022-08-04T13:14:04;7.30;;;3.10;;
65560;SDS011;58166;52.100;6.308;2022-08-04T13:16:55;8.32;;;3.20;;
65560;SDS011;58166;52.100;6.308;2022-08-04T13:19:24;6.47;;;3.20;;
65560;SDS011;58166;52.100;6.308;2022-08-04T13:21:54;8.02;;;3.13;;
65560;SDS011;58166;52.100;6.308;2022-08-04T13:24:28;3.78;;;2.80;;
65560;SDS011;58166;52.100;6.308;2022-08-04T13:27:00;4.63;;;2.88;;
65560;SDS011;58166;52.100;6.308;2022-08-04T13:29:31;3.58;;;2.83;;
65560;SDS011;58166;52.100;6.308;2022-08-04T13:32:20;3.80;;;2.73;;
65560;SDS011;58166;52.100;6.308;2022-08-04T13:34:51;6.45;;;3.10;;
65560;SDS011;58166;52.100;6.308;2022-08-04T13:37:20;6.05;;;3.10;;
65560;SDS011;58166;52.100;6.308;2022-08-04T13:39:48;9.43;;;3.10;;
65560;SDS011;58166;52.100;6.308;2022-08-04T13:42:21;6.38;;;3.28;;
65560;SDS011;58166;52.100;6.308;2022-08-04T13:44:51;4.55;;;3.20;;
65560;SDS011;58166;52.100;6.308;2022-08-04T13:47:20;8.10;;;3.60;;
65560;SDS011;58166;52.100;6.308;2022-08-04T13:52:39;6.15;;;3.60;;
65560;SDS011;58166;52.100;6.308;2022-08-04T13:55:08;8.18;;;3.75;;
65560;SDS011;58166;52.100;6.308;2022-08-04T13:57:44;5.93;;;3.45;;
65560;SDS011;58166;52.100;6.308;2022-08-04T14:00:13;7.03;;;3.42;;
65560;SDS011;58166;52.100;6.308;2022-08-04T14:02:58;5.82;;;3.40;;
65560;SDS011;58166;52.100;6.308;2022-08-04T14:08:02;5.82;;;3.05;;
65560;SDS011;58166;52.100;6.308;2022-08-04T14:10:31;7.20;;;3.22;;
65560;SDS011;58166;52.100;6.308;2022-08-04T14:12:59;5.75;;;3.45;;
65560;SDS011;58166;52.100;6.308;2022-08-04T14:15:30;6.88;;;3.38;;
65560;SDS011;58166;52.100;6.308;2022-08-04T14:18:21;5.32;;;3.28;;
65560;SDS011;58166;52.100;6.308;2022-08-04T14:20:56;5.03;;;3.45;;
65560;SDS011;58166;52.100;6.308;2022-08-04T14:23:25;3.70;;;3.33;;
65560;SDS011;58166;52.100;6.308;2022-08-04T14:25:58;8.43;;;3.00;;
65560;SDS011;58166;52.100;6.308;2022-08-04T14:28:26;5.68;;;3.38;;
65560;SDS011;58166;52.100;6.308;2022-08-04T14:31:15;8.40;;;3.28;;
65560;SDS011;58166;52.100;6.308;2022-08-04T14:33:43;5.00;;;3.22;;
65560;SDS011;58166;52.100;6.308;2022-08-04T14:36:37;7.10;;;3.55;;
65560;SDS011;58166;52.100;6.308;2022-08-04T14:39:38;8.32;;;3.17;;
65560;SDS011;58166;52.100;6.308;2022-08-04T14:42:06;6.78;;;3.42;;
65560;SDS011;58166;52.100;6.308;2022-08-04T14:47:16;4.43;;;2.50;;
65560;SDS011;58166;52.100;6.308;2022-08-04T14:49:52;4.32;;;2.90;;
65560;SDS011;58166;52.100;6.308;2022-08-04T14:52:21;5.13;;;2.60;;
65560;SDS011;58166;52.100;6.308;2022-08-04T14:54:51;3.58;;;2.53;;
65560;SDS011;58166;52.100;6.308;2022-08-04T14:57:18;5.32;;;2.85;;
65560;SDS011;58166;52.100;6.308;2022-08-04T14:59:47;5.10;;;2.80;;
65560;SDS011;58166;52.100;6.308;2022-08-04T15:02:27;6.88;;;2.85;;
65560;SDS011;58166;52.100;6.308;2022-08-04T15:04:55;6.57;;;2.67;;
65560;SDS011;58166;52.100;6.308;2022-08-04T15:07:23;6.88;;;2.42;;
65560;SDS011;58166;52.100;6.308;2022-08-04T15:09:52;4.50;;;2.60;;
65560;SDS011;58166;52.100;6.308;2022-08-04T15:12:20;2.80;;;2.03;;
65560;SDS011;58166;52.100;6.308;2022-08-04T15:14:48;7.63;;;2.03;;
65560;SDS011;58166;52.100;6.308;2022-08-04T15:17:16;3.97;;;2.10;;
65560;SDS011;58166;52.100;6.308;2022-08-04T15:19:55;5.45;;;1.75;;
65560;SDS011;58166;52.100;6.308;2022-08-04T15:22:23;4.30;;;1.90;;
65560;SDS011;58166;52.100;6.308;2022-08-04T15:24:52;4.03;;;2.10;;
65560;SDS011;58166;52.100;6.308;2022-08-04T15:27:22;3.03;;;1.63;;
65560;SDS011;58166;52.100;6.308;2022-08-04T15:29:50;3.25;;;1.77;;
65560;SDS011;58166;52.100;6.308;2022-08-04T15:32:27;3.72;;;1.70;;
65560;SDS011;58166;52.100;6.308;2022-08-04T15:35:00;4.68;;;1.80;;
65560;SDS011;58166;52.100;6.308;2022-08-04T15:37:30;5.65;;;1.70;;
65560;SDS011;58166;52.100;6.308;2022-08-04T15:40:03;6.53;;;1.80;;
65560;SDS011;58166;52.100;6.308;2022-08-04T15:42:33;2.65;;;1.45;;
65560;SDS011;58166;52.100;6.308;2022-08-04T15:45:16;2.70;;;1.60;;
65560;SDS011;58166;52.100;6.308;2022-08-04T15:53:25;4.70;;;1.60;;
65560;SDS011;58166;52.100;6.308;2022-08-04T15:58:57;4.22;;;1.48;;
65560;SDS011;58166;52.100;6.308;2022-08-04T16:01:25;2.05;;;1.30;;
65560;SDS011;58166;52.100;6.308;2022-08-04T16:03:53;4.10;;;1.65;;
65560;SDS011;58166;52.100;6.308;2022-08-04T16:06:40;2.33;;;1.60;;
65560;SDS011;58166;52.100;6.308;2022-08-04T16:09:07;4.18;;;2.30;;
65560;SDS011;58166;52.100;6.308;2022-08-04T16:11:35;2.97;;;1.50;;
65560;SDS011;58166;52.100;6.308;2022-08-04T16:14:07;3.33;;;1.80;;
65560;SDS011;58166;52.100;6.308;2022-08-04T16:16:44;4.50;;;1.80;;
65560;SDS011;58166;52.100;6.308;2022-08-04T16:19:16;3.45;;;1.42;;
65560;SDS011;58166;52.100;6.308;2022-08-04T16:21:47;3.15;;;1.67;;
65560;SDS011;58166;52.100;6.308;2022-08-04T16:24:16;2.75;;;1.38;;
65560;SDS011;58166;52.100;6.308;2022-08-04T16:26:48;2.90;;;1.70;;
65560;SDS011;58166;52.100;6.308;2022-08-04T16:29:32;2.67;;;1.38;;